Jack Holland — WDF3615 — position and weather

sailwx.info

Track history (hours):
 
Tides and Currents Weather Stations Pressure Air Temp Water Temp Dewpoint Dewpoint Depression Visibility Wind Speed Wind Dir Waves Ship Positions

Jack Holland

Owner: Norfolk Tug Company, Norfolk, VA. More information available from US FCC via Universal Licensing System and Coast Guard Vessel Documentation Center.

Last reported at 2017-Jan-06 21:34 UTC. Time now 2017-Jan-18 01:45 UTC.
Position N 36°52' W 076°20'.
Warning: this ship's position is 11 days out of date.

Length 22 m; draft 2.5 m.

Type: Tug. MMSI: 367442020.

Date/timePositionNaut miles runAvg speedWind from/ knotsBaromVisibWave heightAir tempDewpointWater temp
2017-Jan-06 21:34N 36°52' W 076°20'3 3.1
2017-Jan-06 20:33N 36°50' W 076°17'0 0.3
2017-Jan-06 19:31N 36°50' W 076°16'0 0.0
2017-Jan-06 18:33N 36°50' W 076°16'0 0.0
2017-Jan-06 17:31N 36°50' W 076°16'0 0.0
2017-Jan-06 16:34N 36°50' W 076°16'0 0.0
2017-Jan-06 15:31N 36°50' W 076°16'1 0.5
2017-Jan-06 14:33N 36°50' W 076°17'4 4.2
2017-Jan-06 13:32N 36°46' W 076°18'0 0.1
2017-Jan-06 12:18N 36°46' W 076°18'1 0.8
2017-Jan-06 11:30N 36°47' W 076°18'4 3.8
2017-Jan-06 10:31N 36°50' W 076°18'4 0.1
2017-Jan-05 01:30N 36°54' W 076°20'6 6.6
2017-Jan-05 00:34N 36°48' W 076°17'2 2.2
2017-Jan-04 23:34N 36°46' W 076°18'4 4.3
2017-Jan-04 22:34N 36°50' W 076°16'0 0.0
2017-Jan-04 21:34N 36°50' W 076°16'0 0.0
2017-Jan-04 20:33N 36°50' W 076°16'4 4.1
2017-Jan-04 19:33N 36°53' W 076°20'0 0.4
2017-Jan-04 18:33N 36°53' W 076°20'2 0.7
2017-Jan-04 15:32N 36°55' W 076°20'3 2.6
2017-Jan-04 14:33N 36°53' W 076°20'0 0.0
2017-Jan-04 13:34N 36°53' W 076°20'0 0.2
2017-Jan-04 12:33N 36°53' W 076°20'6 6.4
2017-Jan-04 11:34N 36°47' W 076°18'1 0.6
2017-Jan-04 10:33N 36°46' W 076°18'1 1.4
2017-Jan-04 09:33N 36°47' W 076°18'5 5.0
2017-Jan-04 08:33N 36°52' W 076°20'1 0.0
2017-Jan-02 09:22N 36°53' W 076°20'4 4.6
2017-Jan-02 08:33N 36°50' W 076°17'0 0.5
2017-Jan-02 07:33N 36°50' W 076°16'0 0.0
2017-Jan-02 06:33N 36°50' W 076°16'0 0.0
2017-Jan-02 05:19N 36°50' W 076°16'0 0.0
2017-Jan-02 04:15N 36°50' W 076°16'0 0.0
2017-Jan-02 03:33N 36°50' W 076°16'0 0.0
2017-Jan-02 00:26N 36°50' W 076°16'0 0.0
2017-Jan-01 23:33N 36°50' W 076°16'0 0.0
2017-Jan-01 22:33N 36°50' W 076°16'0 0.0
2017-Jan-01 21:07N 36°50' W 076°16'0 0.0
2017-Jan-01 20:33N 36°50' W 076°16'1 1.5
2017-Jan-01 19:33N 36°49' W 076°17'1 0.6
2017-Jan-01 18:33N 36°48' W 076°17'1 0.6
2017-Jan-01 17:33N 36°49' W 076°17'0 0.0
2017-Jan-01 16:33N 36°49' W 076°17'0 0.0
2017-Jan-01 15:33N 36°49' W 076°17'0 0.0
2017-Jan-01 14:33N 36°49' W 076°17'0 0.0
2017-Jan-01 13:33N 36°49' W 076°17'0 0.0
2017-Jan-01 12:33N 36°49' W 076°17'2 1.5
2017-Jan-01 11:33N 36°50' W 076°16'0 0.0
2017-Jan-01 10:33N 36°50' W 076°16'0 0.0
2017-Jan-01 09:33N 36°50' W 076°16'0 0.0
2017-Jan-01 08:33N 36°50' W 076°16'0 0.0
2017-Jan-01 07:33N 36°50' W 076°16'0 0.0
2017-Jan-01 06:33N 36°50' W 076°16'0 0.0
2017-Jan-01 05:33N 36°50' W 076°16'0 0.0
2017-Jan-01 04:33N 36°50' W 076°16'0 0.0
2017-Jan-01 03:33N 36°50' W 076°16'0 0.0
2017-Jan-01 02:33N 36°50' W 076°16'0 0.0
2017-Jan-01 01:33N 36°50' W 076°16'0 0.0
2017-Jan-01 00:33N 36°50' W 076°16'0 0.0
2016-Dec-31 23:33N 36°50' W 076°16'1 1.2
2016-Dec-31 22:33N 36°50' W 076°18'4 3.8
2016-Dec-31 21:33N 36°46' W 076°18'4 4.3
2016-Dec-31 20:33N 36°50' W 076°16'0 0.0
2016-Dec-31 19:33N 36°50' W 076°16'0 0.0
2016-Dec-31 18:33N 36°50' W 076°16'0 0.0
2016-Dec-31 17:33N 36°50' W 076°16'0 0.0
2016-Dec-31 16:33N 36°50' W 076°16'0 0.0
2016-Dec-31 15:33N 36°50' W 076°16'0 0.5
2016-Dec-31 14:33N 36°50' W 076°17'1 0.5
2016-Dec-31 13:33N 36°50' W 076°16'2 1.6
2016-Dec-31 12:33N 36°49' W 076°17'3 3.0
2016-Dec-31 11:33N 36°46' W 076°18'0 0.1
2016-Dec-31 10:33N 36°46' W 076°18'3 2.8
2016-Dec-31 09:33N 36°49' W 076°17'6 5.7
2016-Dec-31 08:33N 36°54' W 076°20'1 0.0
2016-Dec-30 02:31N 36°55' W 076°20'6 5.8
2016-Dec-30 01:32N 36°50' W 076°16'0 0.1
2016-Dec-30 00:32N 36°50' W 076°16'0 0.0
2016-Dec-29 23:31N 36°50' W 076°16'0 0.0
2016-Dec-29 22:32N 36°50' W 076°16'0 0.3
2016-Dec-29 21:33N 36°50' W 076°17'0 0.0
2016-Dec-29 19:19N 36°50' W 076°17'0 0.2
2016-Dec-29 17:28N 36°50' W 076°16'0 0.0
2016-Dec-29 16:33N 36°50' W 076°16'0 0.0
2016-Dec-29 15:32N 36°50' W 076°16'0 0.0
2016-Dec-29 14:33N 36°50' W 076°16'0 0.0
2016-Dec-29 13:33N 36°50' W 076°16'0 0.0
2016-Dec-29 12:33N 36°50' W 076°16'0 0.0
2016-Dec-29 11:31N 36°50' W 076°16'0 0.1
2016-Dec-29 10:30N 36°50' W 076°16'1 0.6
2016-Dec-29 09:32N 36°50' W 076°17'4 0.1
2016-Dec-27 23:33N 36°53' W 076°20'4 4.4
2016-Dec-27 22:33N 36°50' W 076°16'  
Track history (hours):
 
Tides and Currents Weather Stations Pressure Air Temp Water Temp Dewpoint Dewpoint Depression Visibility Wind Speed Wind Dir Waves Ship Positions

Jack Holland

Owner: Norfolk Tug Company, Norfolk, VA. More information available from US FCC via Universal Licensing System and Coast Guard Vessel Documentation Center.

Last reported at 2017-Jan-06 21:34 UTC. Time now 2017-Jan-18 01:45 UTC.
Position N 36°52' W 076°20'.
Warning: this ship's position is 11 days out of date.

Length 22 m; draft 2.5 m.

Type: Tug. MMSI: 367442020.

Date/timePositionNaut miles runAvg speedWind from/ knotsBaromVisibWave heightAir tempDewpointWater temp
2017-Jan-06 21:34N 36°52' W 076°20'3 3.1
2017-Jan-06 20:33N 36°50' W 076°17'0 0.3
2017-Jan-06 19:31N 36°50' W 076°16'0 0.0
2017-Jan-06 18:33N 36°50' W 076°16'0 0.0
2017-Jan-06 17:31N 36°50' W 076°16'0 0.0
2017-Jan-06 16:34N 36°50' W 076°16'0 0.0
2017-Jan-06 15:31N 36°50' W 076°16'1 0.5
2017-Jan-06 14:33N 36°50' W 076°17'4 4.2
2017-Jan-06 13:32N 36°46' W 076°18'0 0.1
2017-Jan-06 12:18N 36°46' W 076°18'1 0.8
2017-Jan-06 11:30N 36°47' W 076°18'4 3.8
2017-Jan-06 10:31N 36°50' W 076°18'4 0.1
2017-Jan-05 01:30N 36°54' W 076°20'6 6.6
2017-Jan-05 00:34N 36°48' W 076°17'2 2.2
2017-Jan-04 23:34N 36°46' W 076°18'4 4.3
2017-Jan-04 22:34N 36°50' W 076°16'0 0.0
2017-Jan-04 21:34N 36°50' W 076°16'0 0.0
2017-Jan-04 20:33N 36°50' W 076°16'4 4.1
2017-Jan-04 19:33N 36°53' W 076°20'0 0.4
2017-Jan-04 18:33N 36°53' W 076°20'2 0.7
2017-Jan-04 15:32N 36°55' W 076°20'3 2.6
2017-Jan-04 14:33N 36°53' W 076°20'0 0.0
2017-Jan-04 13:34N 36°53' W 076°20'0 0.2
2017-Jan-04 12:33N 36°53' W 076°20'6 6.4
2017-Jan-04 11:34N 36°47' W 076°18'1 0.6
2017-Jan-04 10:33N 36°46' W 076°18'1 1.4
2017-Jan-04 09:33N 36°47' W 076°18'5 5.0
2017-Jan-04 08:33N 36°52' W 076°20'1 0.0
2017-Jan-02 09:22N 36°53' W 076°20'4 4.6
2017-Jan-02 08:33N 36°50' W 076°17'0 0.5
2017-Jan-02 07:33N 36°50' W 076°16'0 0.0
2017-Jan-02 06:33N 36°50' W 076°16'0 0.0
2017-Jan-02 05:19N 36°50' W 076°16'0 0.0
2017-Jan-02 04:15N 36°50' W 076°16'0 0.0
2017-Jan-02 03:33N 36°50' W 076°16'0 0.0
2017-Jan-02 00:26N 36°50' W 076°16'0 0.0
2017-Jan-01 23:33N 36°50' W 076°16'0 0.0
2017-Jan-01 22:33N 36°50' W 076°16'0 0.0
2017-Jan-01 21:07N 36°50' W 076°16'0 0.0
2017-Jan-01 20:33N 36°50' W 076°16'1 1.5
2017-Jan-01 19:33N 36°49' W 076°17'1 0.6
2017-Jan-01 18:33N 36°48' W 076°17'1 0.6
2017-Jan-01 17:33N 36°49' W 076°17'0 0.0
2017-Jan-01 16:33N 36°49' W 076°17'0 0.0
2017-Jan-01 15:33N 36°49' W 076°17'0 0.0
2017-Jan-01 14:33N 36°49' W 076°17'0 0.0
2017-Jan-01 13:33N 36°49' W 076°17'0 0.0
2017-Jan-01 12:33N 36°49' W 076°17'2 1.5
2017-Jan-01 11:33N 36°50' W 076°16'0 0.0
2017-Jan-01 10:33N 36°50' W 076°16'0 0.0
2017-Jan-01 09:33N 36°50' W 076°16'0 0.0
2017-Jan-01 08:33N 36°50' W 076°16'0 0.0
2017-Jan-01 07:33N 36°50' W 076°16'0 0.0
2017-Jan-01 06:33N 36°50' W 076°16'0 0.0
2017-Jan-01 05:33N 36°50' W 076°16'0 0.0
2017-Jan-01 04:33N 36°50' W 076°16'0 0.0
2017-Jan-01 03:33N 36°50' W 076°16'0 0.0
2017-Jan-01 02:33N 36°50' W 076°16'0 0.0
2017-Jan-01 01:33N 36°50' W 076°16'0 0.0
2017-Jan-01 00:33N 36°50' W 076°16'0 0.0
2016-Dec-31 23:33N 36°50' W 076°16'1 1.2
2016-Dec-31 22:33N 36°50' W 076°18'4 3.8
2016-Dec-31 21:33N 36°46' W 076°18'4 4.3
2016-Dec-31 20:33N 36°50' W 076°16'0 0.0
2016-Dec-31 19:33N 36°50' W 076°16'0 0.0
2016-Dec-31 18:33N 36°50' W 076°16'0 0.0
2016-Dec-31 17:33N 36°50' W 076°16'0 0.0
2016-Dec-31 16:33N 36°50' W 076°16'0 0.0
2016-Dec-31 15:33N 36°50' W 076°16'0 0.5
2016-Dec-31 14:33N 36°50' W 076°17'1 0.5
2016-Dec-31 13:33N 36°50' W 076°16'2 1.6
2016-Dec-31 12:33N 36°49' W 076°17'3 3.0
2016-Dec-31 11:33N 36°46' W 076°18'0 0.1
2016-Dec-31 10:33N 36°46' W 076°18'3 2.8
2016-Dec-31 09:33N 36°49' W 076°17'6 5.7
2016-Dec-31 08:33N 36°54' W 076°20'1 0.0
2016-Dec-30 02:31N 36°55' W 076°20'6 5.8
2016-Dec-30 01:32N 36°50' W 076°16'0 0.1
2016-Dec-30 00:32N 36°50' W 076°16'0 0.0
2016-Dec-29 23:31N 36°50' W 076°16'0 0.0
2016-Dec-29 22:32N 36°50' W 076°16'0 0.3
2016-Dec-29 21:33N 36°50' W 076°17'0 0.0
2016-Dec-29 19:19N 36°50' W 076°17'0 0.2
2016-Dec-29 17:28N 36°50' W 076°16'0 0.0
2016-Dec-29 16:33N 36°50' W 076°16'0 0.0
2016-Dec-29 15:32N 36°50' W 076°16'0 0.0
2016-Dec-29 14:33N 36°50' W 076°16'0 0.0
2016-Dec-29 13:33N 36°50' W 076°16'0 0.0
2016-Dec-29 12:33N 36°50' W 076°16'0 0.0
2016-Dec-29 11:31N 36°50' W 076°16'0 0.1
2016-Dec-29 10:30N 36°50' W 076°16'1 0.6
2016-Dec-29 09:32N 36°50' W 076°17'4 0.1
2016-Dec-27 23:33N 36°53' W 076°20'4 4.4
2016-Dec-27 22:33N 36°50' W 076°16'  

Dump ship's entire track history